createdAt,value
2018-06-01T00:00:02.258Z,100499.00
2018-06-01T00:01:04.758Z,100504.77
2018-06-01T00:02:07.264Z,100508.55
2018-06-01T00:03:09.785Z,100510.95
2018-06-01T00:04:12.281Z,100513.54
2018-06-01T00:05:14.785Z,100509.36
2018-06-01T00:06:17.316Z,100513.94
2018-06-01T00:07:19.799Z,100517.72
2018-06-01T00:08:22.296Z,100522.70
2018-06-01T00:09:24.800Z,100523.10
2018-06-01T00:10:27.316Z,100524.50
2018-06-01T00:11:29.836Z,100523.91
2018-06-01T00:12:32.322Z,100526.69
2018-06-01T00:13:34.852Z,100522.91
2018-06-01T00:14:37.339Z,100523.91
2018-06-01T00:15:39.861Z,100520.92
2018-06-01T00:16:42.366Z,100524.30
2018-06-01T00:17:44.846Z,100527.09
2018-06-01T00:18:47.347Z,100531.27
2018-06-01T00:19:49.844Z,100529.69
2018-06-01T00:20:52.342Z,100528.88
2018-06-01T00:21:54.833Z,100532.47
2018-06-01T00:22:57.356Z,100530.68
2018-06-01T00:23:59.891Z,100537.45
2018-06-01T00:25:02.398Z,100521.32
2018-06-01T00:26:04.902Z,100530.68
2018-06-01T00:27:07.384Z,100522.13
2018-06-01T00:28:09.899Z,100518.94
2018-06-01T00:29:12.394Z,100519.53
2018-06-01T00:30:14.922Z,100516.74
2018-06-01T00:31:17.432Z,100516.55
2018-06-01T00:32:19.916Z,100516.15
2018-06-01T00:33:22.428Z,100512.96
2018-06-01T00:34:24.963Z,100513.36
2018-06-01T00:35:27.483Z,100510.58
2018-06-01T00:36:29.999Z,100512.56
2018-06-01T00:37:32.516Z,100514.95
2018-06-01T00:38:34.998Z,100508.37
2018-06-01T00:39:37.498Z,100510.17
2018-06-01T00:40:40.004Z,100505.40
2018-06-01T00:41:42.525Z,100507.19
2018-06-01T00:42:45.015Z,100506.39
2018-06-01T00:43:47.509Z,100504.41
2018-06-01T00:44:50.015Z,100504.80
2018-06-01T00:45:52.498Z,100507.59
2018-06-01T00:46:54.991Z,100504.61
2018-06-01T00:47:57.470Z,100505.20
2018-06-01T00:48:59.984Z,100508.39
2018-06-01T00:50:02.490Z,100503.22
2018-06-01T00:51:04.990Z,100506.59
2018-06-01T00:52:07.473Z,100508.80
2018-06-01T00:53:09.990Z,100510.59
2018-06-01T00:54:12.482Z,100513.38
2018-06-01T00:55:24.920Z,100510.59
2018-06-01T00:56:27.421Z,100508.80
2018-06-01T00:57:30.730Z,100503.22
2018-06-01T00:58:33.219Z,100503.62
2018-06-01T00:59:35.722Z,100501.83
2018-06-01T01:00:38.259Z,100501.42
2018-06-01T01:01:40.756Z,100503.62
2018-06-01T01:02:43.257Z,100500.44
2018-06-01T01:03:45.758Z,100503.22
2018-06-01T01:04:48.267Z,100504.21
2018-06-01T01:05:50.770Z,100503.62
2018-06-01T01:06:53.285Z,100502.63
2018-06-01T01:07:55.814Z,100494.86
2018-06-01T01:08:58.320Z,100496.66
2018-06-01T01:10:00.807Z,100494.86
2018-06-01T01:11:03.343Z,100487.48
2018-06-01T01:12:05.884Z,100492.66
2018-06-01T01:13:08.414Z,100490.27
2018-06-01T01:14:10.928Z,100489.88
2018-06-01T01:15:13.428Z,100494.86
2018-06-01T01:16:15.952Z,100491.08
2018-06-01T01:17:19.384Z,100500.83
2018-06-01T01:18:21.881Z,100508.20
2018-06-01T01:19:24.358Z,100507.80
2018-06-01T01:20:26.857Z,100508.60
2018-06-01T01:21:29.383Z,100509.00
2018-06-01T01:22:31.912Z,100507.00
2018-06-01T01:23:34.582Z,100509.59
2018-06-01T01:24:37.141Z,100517.16
2018-06-01T01:25:39.636Z,100519.55
2018-06-01T01:26:42.180Z,100524.13
2018-06-01T01:27:44.704Z,100526.11
2018-06-01T01:28:47.214Z,100525.13
2018-06-01T01:29:49.752Z,100525.33
2018-06-01T01:30:52.271Z,100532.30
2018-06-01T01:31:54.807Z,100530.50
2018-06-01T01:32:57.322Z,100532.89
2018-06-01T01:33:59.804Z,100535.48
2018-06-01T01:35:02.284Z,100531.70
2018-06-01T01:36:04.766Z,100532.30
2018-06-01T01:37:07.267Z,100534.69
2018-06-01T01:38:09.775Z,100540.26
2018-06-01T01:39:12.281Z,100541.65
2018-06-01T01:40:14.812Z,100543.05
2018-06-01T01:41:17.529Z,100542.05
2018-06-01T01:42:20.041Z,100543.45
2018-06-01T01:43:22.526Z,100542.85
2018-06-01T01:44:25.044Z,100535.48
2018-06-01T01:45:27.534Z,100539.27
2018-06-01T01:46:30.030Z,100540.26
2018-06-01T01:47:32.543Z,100537.07
2018-06-01T01:48:35.031Z,100535.27
2018-06-01T01:49:37.533Z,100530.50
2018-06-01T01:50:40.049Z,100531.09
2018-06-01T01:51:42.561Z,100527.91
2018-06-01T01:52:45.085Z,100523.73
2018-06-01T01:53:47.624Z,100523.73
2018-06-01T01:54:50.164Z,100525.71
2018-06-01T01:55:52.650Z,100519.55
2018-06-01T01:56:55.149Z,100519.14
2018-06-01T01:57:57.677Z,100517.75
2018-06-01T01:59:00.177Z,100513.57
2018-06-01T02:00:02.688Z,100515.17
2018-06-01T02:01:05.174Z,100508.80
2018-06-01T02:02:07.662Z,100508.20
2018-06-01T02:03:10.176Z,100512.38
2018-06-01T02:04:12.669Z,100505.81
2018-06-01T02:05:15.194Z,100502.03
2018-06-01T02:06:17.714Z,100496.06
2018-06-01T02:07:20.245Z,100496.46
2018-06-01T02:08:22.780Z,100491.69
2018-06-01T02:09:25.281Z,100487.30
2018-06-01T02:10:27.780Z,100490.88
2018-06-01T02:11:30.262Z,100480.33
2018-06-01T02:12:32.751Z,100487.70
2018-06-01T02:13:35.246Z,100485.91
2018-06-01T02:14:37.756Z,100481.91
2018-06-01T02:15:40.242Z,100483.70
2018-06-01T02:16:42.757Z,100480.13
2018-06-01T02:17:45.247Z,100484.52
2018-06-01T02:18:47.761Z,100489.28
2018-06-01T02:19:50.261Z,100495.85
2018-06-01T02:20:52.757Z,100489.69
2018-06-01T02:21:55.297Z,100493.86
2018-06-01T02:22:57.797Z,100495.66
2018-06-01T02:24:00.316Z,100503.22
2018-06-01T02:25:02.824Z,100499.84
2018-06-01T02:26:05.343Z,100498.45
2018-06-01T02:27:07.881Z,100498.84
2018-06-01T02:28:10.377Z,100498.84
2018-06-01T02:29:12.957Z,100501.04
2018-06-01T02:30:15.458Z,100495.66
2018-06-01T02:31:17.943Z,100494.27
2018-06-01T02:32:20.426Z,100490.48
2018-06-01T02:33:22.932Z,100481.72
2018-06-01T02:34:25.454Z,100483.70
2018-06-01T02:35:27.972Z,100479.12
2018-06-01T02:36:30.490Z,100476.94
2018-06-01T02:37:33.017Z,100483.91
2018-06-01T02:38:35.510Z,100476.94
2018-06-01T02:39:38.046Z,100475.73
2018-06-01T02:40:41.722Z,100478.52
2018-06-01T02:41:44.238Z,100478.52
2018-06-01T02:42:46.724Z,100476.33
2018-06-01T02:43:49.217Z,100472.14
2018-06-01T02:44:51.738Z,100473.94
2018-06-01T02:45:54.241Z,100472.95
2018-06-01T02:46:56.740Z,100462.00
2018-06-01T02:47:59.239Z,100461.80
2018-06-01T02:49:01.745Z,100447.46
2018-06-01T02:50:04.267Z,100448.26
2018-06-01T02:51:06.784Z,100440.89
2018-06-01T02:52:09.294Z,100432.72
2018-06-01T02:53:11.794Z,100432.12
2018-06-01T02:54:14.297Z,100432.32
2018-06-01T02:55:16.808Z,100430.73
2018-06-01T02:56:19.300Z,100423.96
2018-06-01T02:57:21.800Z,100428.54
2018-06-01T02:58:24.301Z,100436.91
2018-06-01T02:59:26.804Z,100425.36
2018-06-01T03:00:29.325Z,100438.30
2018-06-01T03:01:31.846Z,100439.69
2018-06-01T03:02:34.337Z,100446.06
2018-06-01T03:03:37.171Z,100445.67
2018-06-01T03:04:39.709Z,100460.59
2018-06-01T03:05:42.312Z,100466.77
2018-06-01T03:06:56.613Z,100470.35
2018-06-01T03:07:59.109Z,100468.95
2018-06-01T03:09:01.609Z,100473.73
2018-06-01T03:10:04.131Z,100479.30
2018-06-01T03:11:06.634Z,100480.70
2018-06-01T03:12:09.168Z,100478.31
2018-06-01T03:13:11.733Z,100484.29
2018-06-01T03:14:14.205Z,100491.66
2018-06-01T03:15:16.709Z,100494.45
2018-06-01T03:16:19.223Z,100501.41
2018-06-01T03:17:21.723Z,100505.39
2018-06-01T03:18:24.207Z,100506.78
2018-06-01T03:19:26.720Z,100509.16
2018-06-01T03:20:29.210Z,100512.75
2018-06-01T03:21:31.755Z,100509.77
2018-06-01T03:22:34.275Z,100502.61
2018-06-01T03:23:36.794Z,100505.99
2018-06-01T03:24:39.349Z,100508.98
2018-06-01T03:25:41.917Z,100509.58
2018-06-01T03:26:44.451Z,100512.17
2018-06-01T03:27:48.595Z,100505.61
2018-06-01T03:28:51.091Z,100507.19
2018-06-01T03:29:53.589Z,100508.20
2018-06-01T03:30:56.103Z,100499.63
2018-06-01T03:31:58.627Z,100501.83
2018-06-01T03:33:01.161Z,100493.26
2018-06-01T03:34:03.664Z,100492.27
2018-06-01T03:35:06.161Z,100486.69
2018-06-01T03:36:08.661Z,100483.09
2018-06-01T03:37:11.154Z,100483.09
2018-06-01T03:38:13.665Z,100492.86
2018-06-01T03:39:16.176Z,100485.48
2018-06-01T03:40:18.683Z,100498.22
2018-06-01T03:41:21.217Z,100497.83
2018-06-01T03:42:23.752Z,100505.78
2018-06-01T03:43:26.242Z,100511.76
2018-06-01T03:44:28.741Z,100525.70
2018-06-01T03:45:31.257Z,100527.70
2018-06-01T03:46:33.738Z,100544.80
2018-06-01T03:47:36.245Z,100553.17
2018-06-01T03:48:38.730Z,100567.50
2018-06-01T03:49:41.575Z,100578.84
2018-06-01T03:50:44.177Z,100577.85
2018-06-01T03:51:46.699Z,100578.45
2018-06-01T03:52:49.231Z,100581.23
2018-06-01T03:53:51.736Z,100586.22
2018-06-01T03:54:54.249Z,100581.44
2018-06-01T03:55:56.778Z,100589.22
2018-06-01T03:57:00.044Z,100582.45
2018-06-01T03:58:02.584Z,100584.25
2018-06-01T03:59:05.083Z,100588.83
2018-06-01T04:00:07.595Z,100587.03
2018-06-01T04:01:10.148Z,100596.79
2018-06-01T04:02:12.712Z,100594.21
2018-06-01T04:03:15.235Z,100604.16
2018-06-01T04:04:17.752Z,100605.55
2018-06-01T04:05:20.291Z,100598.59
2018-06-01T04:06:23.292Z,100614.91
2018-06-01T04:07:25.810Z,100617.48
2018-06-01T04:08:28.975Z,100613.70
2018-06-01T04:09:31.507Z,100613.52
2018-06-01T04:10:34.019Z,100620.27
2018-06-01T04:11:36.502Z,100626.04
2018-06-01T04:12:39.029Z,100628.42
2018-06-01T04:13:41.534Z,100628.42
2018-06-01T04:14:44.104Z,100630.02
2018-06-01T04:15:47.525Z,100638.38
2018-06-01T04:16:50.035Z,100639.77
2018-06-01T04:17:53.044Z,100637.17
2018-06-01T04:18:55.566Z,100646.14
2018-06-01T04:19:58.050Z,100647.12
2018-06-01T04:21:00.598Z,100640.55
2018-06-01T04:22:03.109Z,100643.73
2018-06-01T04:23:05.595Z,100648.51
2018-06-01T04:24:08.109Z,100649.31
2018-06-01T04:25:10.624Z,100657.08
2018-06-01T04:26:13.143Z,100651.30
2018-06-01T04:27:16.574Z,100651.70
2018-06-01T04:28:19.063Z,100655.48
2018-06-01T04:29:21.594Z,100655.67
2018-06-01T04:30:24.108Z,100648.48
2018-06-01T04:31:26.601Z,100646.50
2018-06-01T04:32:29.088Z,100640.13
2018-06-01T04:33:31.570Z,100636.33
2018-06-01T04:34:34.127Z,100633.55
2018-06-01T04:35:36.638Z,100621.19
2018-06-01T04:36:39.154Z,100609.24
2018-06-01T04:37:41.678Z,100605.84
2018-06-01T04:38:44.170Z,100605.41
2018-06-01T04:39:46.677Z,100601.22
2018-06-01T04:40:49.195Z,100610.16
2018-06-01T04:41:51.697Z,100612.16
2018-06-01T04:42:54.178Z,100620.52
2018-06-01T04:43:56.676Z,100629.06
2018-06-01T04:44:59.194Z,100630.06
2018-06-01T04:46:01.691Z,100632.01
2018-06-01T04:47:04.195Z,100638.17
2018-06-01T04:48:06.768Z,100635.79
2018-06-01T04:49:09.345Z,100633.19
2018-06-01T04:50:11.836Z,100639.76
2018-06-01T04:51:14.322Z,100641.16
2018-06-01T04:52:16.821Z,100635.77
2018-06-01T04:53:19.377Z,100640.75
2018-06-01T04:54:21.892Z,100646.33
2018-06-01T04:55:24.427Z,100652.48
2018-06-01T04:56:26.925Z,100651.09
2018-06-01T04:57:29.435Z,100653.48
2018-06-01T04:58:31.929Z,100659.05
2018-06-01T04:59:34.448Z,100648.71
2018-06-01T05:00:36.953Z,100654.09
2018-06-01T05:01:39.463Z,100656.88
2018-06-01T05:02:41.960Z,100647.53
2018-06-01T05:03:44.449Z,100650.91
2018-06-01T05:04:46.959Z,100649.52
2018-06-01T05:05:49.491Z,100642.76
2018-06-01T05:06:51.983Z,100635.98
2018-06-01T05:07:54.477Z,100632.39
2018-06-01T05:08:56.990Z,100623.84
2018-06-01T05:09:59.481Z,100629.41
2018-06-01T05:11:02.005Z,100622.84
2018-06-01T05:12:04.504Z,100616.47
2018-06-01T05:13:07.040Z,100613.28
2018-06-01T05:14:09.537Z,100606.72
2018-06-01T05:15:12.037Z,100599.94
2018-06-01T05:16:14.571Z,100594.96
2018-06-01T05:17:17.061Z,100594.18
2018-06-01T05:18:19.577Z,100601.34
2018-06-01T05:19:22.059Z,100599.55
2018-06-01T05:20:24.562Z,100602.33
2018-06-01T05:21:27.094Z,100601.73
2018-06-01T05:22:29.593Z,100601.34
2018-06-01T05:23:32.093Z,100598.55
2018-06-01T05:24:34.610Z,100593.17
2018-06-01T05:25:37.127Z,100592.17
2018-06-01T05:26:39.666Z,100590.38
2018-06-01T05:27:42.243Z,100590.19
2018-06-01T05:28:44.725Z,100587.00
2018-06-01T05:29:47.237Z,100587.41
2018-06-01T05:30:49.755Z,100586.41
2018-06-01T05:31:52.281Z,100586.01
2018-06-01T05:32:54.767Z,100585.61
2018-06-01T05:33:57.287Z,100587.21
2018-06-01T05:34:59.837Z,100593.98
2018-06-01T05:36:02.349Z,100590.80
2018-06-01T05:37:04.857Z,100593.59
2018-06-01T05:38:07.356Z,100589.00
2018-06-01T05:39:09.851Z,100585.23
2018-06-01T05:40:12.360Z,100582.04
2018-06-01T05:41:14.879Z,100586.22
2018-06-01T05:42:17.394Z,100575.86
2018-06-01T05:43:19.875Z,100576.26
2018-06-01T05:44:22.369Z,100572.48
2018-06-01T05:45:24.863Z,100572.87
2018-06-01T05:46:27.361Z,100571.89
2018-06-01T05:47:29.908Z,100570.49
2018-06-01T05:48:32.410Z,100567.89
2018-06-01T05:49:34.899Z,100568.30
2018-06-01T05:50:37.386Z,100567.50
2018-06-01T05:51:39.867Z,100568.48
2018-06-01T05:52:42.378Z,100567.50
2018-06-01T05:53:44.862Z,100562.91
2018-06-01T05:54:47.347Z,100562.33
2018-06-01T05:55:49.827Z,100563.91
2018-06-01T05:56:52.341Z,100560.72
2018-06-01T05:57:54.876Z,100562.91
2018-06-01T05:58:57.384Z,100560.72
2018-06-01T05:59:59.901Z,100555.34
2018-06-01T06:01:02.387Z,100555.73
2018-06-01T06:02:04.874Z,100550.16
2018-06-01T06:03:07.371Z,100549.55
2018-06-01T06:04:09.854Z,100551.34
2018-06-01T06:05:12.371Z,100549.77
2018-06-01T06:06:14.871Z,100557.12
2018-06-01T06:07:17.373Z,100558.33
2018-06-01T06:08:19.890Z,100558.13
2018-06-01T06:09:22.414Z,100562.30
2018-06-01T06:10:24.935Z,100559.92
2018-06-01T06:11:27.432Z,100561.31
2018-06-01T06:12:29.913Z,100564.09
2018-06-01T06:13:32.466Z,100555.55
2018-06-01T06:14:34.940Z,100553.75
2018-06-01T06:15:37.427Z,100552.57
2018-06-01T06:16:39.935Z,100542.03
2018-06-01T06:17:42.440Z,100541.44
2018-06-01T06:18:44.975Z,100539.89
2018-06-01T06:19:47.498Z,100547.66
2018-06-01T06:20:50.004Z,100541.89
2018-06-01T06:21:52.498Z,100549.06
2018-06-01T06:22:54.996Z,100552.44
2018-06-01T06:23:57.528Z,100548.27
2018-06-01T06:25:00.015Z,100556.63
2018-06-01T06:26:02.514Z,100554.43
2018-06-01T06:27:05.009Z,100555.61
2018-06-01T06:28:07.564Z,100553.44
2018-06-01T06:29:10.126Z,100554.03
2018-06-01T06:30:12.634Z,100556.63
2018-06-01T06:31:15.138Z,100562.39
2018-06-01T06:32:17.656Z,100560.39
2018-06-01T06:33:20.165Z,100564.97
2018-06-01T06:34:22.685Z,100565.13
2018-06-01T06:35:25.170Z,100560.78
2018-06-01T06:36:27.732Z,100556.37
2018-06-01T06:37:30.182Z,100554.77
2018-06-01T06:38:32.685Z,100556.75
2018-06-01T06:39:35.217Z,100555.95
2018-06-01T06:40:37.699Z,100553.96
2018-06-01T06:41:40.212Z,100550.38
2018-06-01T06:42:42.723Z,100544.59
2018-06-01T06:43:45.243Z,100544.38
2018-06-01T06:44:47.742Z,100543.79
2018-06-01T06:45:50.239Z,100541.59
2018-06-01T06:46:52.750Z,100529.65
2018-06-01T06:47:55.253Z,100538.60
2018-06-01T06:48:57.738Z,100542.19
2018-06-01T06:50:00.238Z,100540.19
2018-06-01T06:51:02.719Z,100540.17
2018-06-01T06:52:05.235Z,100543.93
2018-06-01T06:53:07.729Z,100543.88
2018-06-01T06:54:10.235Z,100540.09
2018-06-01T06:55:12.771Z,100545.05
2018-06-01T06:56:15.274Z,100551.00
2018-06-01T06:57:17.760Z,100541.83
2018-06-01T06:58:20.280Z,100547.56
2018-06-01T06:59:22.768Z,100539.38
2018-06-01T07:00:25.305Z,100541.91
2018-06-01T07:01:27.786Z,100550.41
2018-06-01T07:02:30.300Z,100553.38
2018-06-01T07:03:32.801Z,100551.75
2018-06-01T07:04:35.287Z,100548.33
2018-06-01T07:05:37.791Z,100549.86
2018-06-01T07:06:40.289Z,100550.83
2018-06-01T07:07:42.775Z,100550.66
2018-06-01T07:08:45.273Z,100554.02
2018-06-01T07:09:47.769Z,100552.81
2018-06-01T07:10:50.330Z,100554.80
2018-06-01T07:11:52.810Z,100552.80
2018-06-01T07:12:55.302Z,100558.95
2018-06-01T07:13:57.800Z,100560.52
2018-06-01T07:15:00.322Z,100561.48
2018-06-01T07:16:02.842Z,100570.33
2018-06-01T07:17:05.353Z,100579.84
2018-06-01T07:18:07.853Z,100581.83
2018-06-01T07:19:10.337Z,100589.13
2018-06-01T07:20:12.840Z,100601.47
2018-06-01T07:21:15.380Z,100610.73
2018-06-01T07:22:17.867Z,100616.20
2018-06-01T07:23:20.459Z,100626.47
2018-06-01T07:24:22.957Z,100627.77
2018-06-01T07:25:25.493Z,100633.04
2018-06-01T07:26:27.992Z,100636.23
2018-06-01T07:27:30.543Z,100632.45
2018-06-01T07:28:33.638Z,100637.00
2018-06-01T07:29:36.159Z,100643.89
2018-06-01T07:30:38.662Z,100640.68
2018-06-01T07:31:41.183Z,100639.23
2018-06-01T07:32:43.695Z,100631.32
2018-06-01T07:33:46.226Z,100630.95
2018-06-01T07:34:48.733Z,100628.19
2018-06-01T07:35:51.218Z,100620.25
2018-06-01T07:36:53.738Z,100629.83
2018-06-01T07:37:56.255Z,100639.58
2018-06-01T07:38:58.738Z,100645.11
2018-06-01T07:40:01.238Z,100649.06
2018-06-01T07:41:03.792Z,100653.83
2018-06-01T07:42:06.309Z,100652.38
2018-06-01T07:43:08.820Z,100656.55
2018-06-01T07:44:11.310Z,100656.30
2018-06-01T07:45:13.805Z,100658.92
2018-06-01T07:46:16.319Z,100656.33
2018-06-01T07:47:18.840Z,100656.52
2018-06-01T07:48:21.337Z,100653.32
2018-06-01T07:49:23.836Z,100650.19
2018-06-01T07:50:26.338Z,100652.57
2018-06-01T07:51:28.848Z,100649.97
2018-06-01T07:52:31.369Z,100643.98
2018-06-01T07:53:33.893Z,100640.58
2018-06-01T07:54:36.442Z,100628.84
2018-06-01T07:55:38.907Z,100630.86
2018-06-01T07:56:41.394Z,100635.61
2018-06-01T07:57:43.920Z,100641.14
2018-06-01T07:58:46.431Z,100647.06
2018-06-01T07:59:48.947Z,100650.24
2018-06-01T08:00:51.540Z,100662.78
2018-06-01T08:01:54.022Z,100661.91
2018-06-01T08:02:56.563Z,100660.06
2018-06-01T08:03:59.069Z,100657.58
2018-06-01T08:05:01.580Z,100657.40
2018-06-01T08:06:04.066Z,100661.82
2018-06-01T08:07:06.565Z,100662.55
2018-06-01T08:08:09.085Z,100663.30
2018-06-01T08:09:11.945Z,100662.02
2018-06-01T08:10:14.421Z,100666.09
2018-06-01T08:11:16.902Z,100667.66
2018-06-01T08:12:19.411Z,100674.11
2018-06-01T08:13:21.945Z,100676.66
2018-06-01T08:14:24.433Z,100673.97
2018-06-01T08:15:26.944Z,100669.49
2018-06-01T08:16:29.443Z,100669.00
2018-06-01T08:17:31.935Z,100665.48
2018-06-01T08:18:34.472Z,100663.53
2018-06-01T08:19:36.971Z,100660.19
2018-06-01T08:21:41.255Z,100660.47
2018-06-01T08:22:43.753Z,100664.30
2018-06-01T08:23:46.284Z,100666.74
2018-06-01T08:24:48.785Z,100668.16
2018-06-01T08:25:51.277Z,100673.54
2018-06-01T08:26:53.827Z,100675.95
2018-06-01T08:27:56.298Z,100679.13
2018-06-01T08:28:58.795Z,100673.17
2018-06-01T08:30:01.275Z,100675.14
2018-06-01T08:31:03.777Z,100669.95
2018-06-01T08:32:06.858Z,100672.92
2018-06-01T08:33:09.373Z,100675.27
2018-06-01T08:34:11.874Z,100675.27
2018-06-01T08:35:14.459Z,100676.66
2018-06-01T08:36:16.953Z,100678.86
2018-06-01T08:37:19.476Z,100679.84
2018-06-01T08:38:21.977Z,100684.52
2018-06-01T08:39:24.524Z,100695.61
2018-06-01T08:40:27.031Z,100685.66
2018-06-01T08:41:29.552Z,100689.80
2018-06-01T08:42:32.053Z,100685.01
2018-06-01T08:43:34.567Z,100676.27
2018-06-01T08:44:37.066Z,100669.31
2018-06-01T08:45:39.564Z,100673.08
2018-06-01T08:46:42.076Z,100671.69
2018-06-01T08:47:44.539Z,100671.50
2018-06-01T08:48:47.042Z,100680.47
2018-06-01T08:49:49.552Z,100679.29
2018-06-01T08:50:52.036Z,100686.23
2018-06-01T08:51:54.537Z,100685.06
2018-06-01T08:52:57.041Z,100686.27
2018-06-01T08:53:59.544Z,100691.25
2018-06-01T08:55:02.065Z,100683.12
2018-06-01T08:56:04.548Z,100675.02
2018-06-01T08:57:07.072Z,100669.46
2018-06-01T08:58:09.569Z,100671.66
2018-06-01T08:59:12.129Z,100665.11
2018-06-01T09:00:14.638Z,100666.50
2018-06-01T09:01:17.120Z,100662.91
2018-06-01T09:02:19.622Z,100662.11
2018-06-01T09:03:22.131Z,100668.23
2018-06-01T09:04:24.633Z,100667.27
2018-06-01T09:05:27.161Z,100659.67
2018-06-01T09:06:29.657Z,100664.83
2018-06-01T09:07:32.179Z,100668.38
2018-06-01T09:08:34.692Z,100669.95
2018-06-01T09:09:37.189Z,100670.70
2018-06-01T09:10:39.708Z,100682.19
2018-06-01T09:11:42.223Z,100669.49
2018-06-01T09:12:44.725Z,100673.08
2018-06-01T09:13:47.220Z,100675.48
2018-06-01T09:14:49.716Z,100666.56
2018-06-01T09:15:52.227Z,100670.95
2018-06-01T09:16:54.740Z,100673.76
2018-06-01T09:17:57.249Z,100678.14
2018-06-01T09:18:59.749Z,100677.80
2018-06-01T09:20:02.253Z,100672.89
2018-06-01T09:21:04.769Z,100678.48
2018-06-01T09:22:07.264Z,100677.90
2018-06-01T09:23:09.773Z,100682.88
2018-06-01T09:24:12.294Z,100680.13
2018-06-01T09:25:14.803Z,100686.48
2018-06-01T09:26:17.321Z,100685.31
2018-06-01T09:27:19.826Z,100683.55
2018-06-01T09:28:22.374Z,100681.14
2018-06-01T09:29:24.846Z,100682.91
2018-06-01T09:30:27.352Z,100680.30
2018-06-01T09:31:29.872Z,100682.69
2018-06-01T09:32:32.358Z,100684.66
2018-06-01T09:33:34.855Z,100685.66
2018-06-01T09:34:37.353Z,100681.08
2018-06-01T09:35:39.858Z,100685.22
2018-06-01T09:36:42.377Z,100683.19
2018-06-01T09:37:44.877Z,100678.61
2018-06-01T09:38:47.358Z,100686.80
2018-06-01T09:39:49.853Z,100686.55
2018-06-01T09:40:52.380Z,100678.95
2018-06-01T09:41:54.893Z,100682.10
2018-06-01T09:42:57.381Z,100681.33
2018-06-01T09:43:59.881Z,100683.12
2018-06-01T09:45:02.384Z,100681.11
2018-06-01T09:46:04.876Z,100689.27
2018-06-01T09:47:07.392Z,100684.11
2018-06-01T09:48:09.894Z,100685.34
2018-06-01T09:49:12.397Z,100681.98
2018-06-01T09:50:15.711Z,100685.16
2018-06-01T09:51:18.278Z,100684.91
2018-06-01T09:52:20.797Z,100685.16
2018-06-01T09:53:23.453Z,100689.92
2018-06-01T09:54:26.056Z,100691.31
2018-06-01T09:55:28.912Z,100693.50
2018-06-01T09:56:31.481Z,100692.30
2018-06-01T09:57:34.100Z,100686.55
2018-06-01T09:58:36.635Z,100690.97
2018-06-01T09:59:39.191Z,100689.18
2018-06-01T10:00:47.473Z,100694.64
2018-06-01T10:01:50.173Z,100693.63
2018-06-01T10:02:52.742Z,100694.22
2018-06-01T10:03:55.646Z,100688.03
2018-06-01T10:04:58.245Z,100686.83
2018-06-01T10:06:00.839Z,100686.23
2018-06-01T10:07:03.738Z,100690.59
2018-06-01T10:08:06.366Z,100692.39
2018-06-01T10:09:09.723Z,100695.17
2018-06-01T10:10:17.869Z,100696.38
2018-06-01T10:11:20.898Z,100695.20
2018-06-01T10:12:23.461Z,100686.67
2018-06-01T10:13:26.161Z,100694.09
2018-06-01T10:14:29.106Z,100692.36
2018-06-01T10:15:31.818Z,100691.77
2018-06-01T10:16:34.456Z,100691.00
2018-06-01T10:17:37.837Z,100701.11
2018-06-01T10:18:40.461Z,100686.80
2018-06-01T10:19:43.174Z,100686.61
2018-06-01T10:20:46.549Z,100692.17
2018-06-01T10:21:49.069Z,100689.20
2018-06-01T10:22:51.625Z,100687.05
2018-06-01T10:23:54.315Z,100689.67
2018-06-01T10:24:57.193Z,100692.83
2018-06-01T10:25:59.805Z,100690.66
2018-06-01T10:27:02.406Z,100687.48
2018-06-01T10:28:05.161Z,100688.06
2018-06-01T10:29:08.223Z,100687.84
2018-06-01T10:30:10.914Z,100694.40
2018-06-01T10:31:13.462Z,100689.64
2018-06-01T10:32:16.747Z,100690.81
2018-06-01T10:33:19.350Z,100686.03
2018-06-01T10:34:21.938Z,100681.23
2018-06-01T10:35:24.546Z,100682.38
2018-06-01T10:36:27.067Z,100679.59
2018-06-01T10:37:29.731Z,100682.23
2018-06-01T10:38:32.828Z,100680.65
2018-06-01T10:39:35.386Z,100681.80
2018-06-01T10:40:38.204Z,100681.23
2018-06-01T10:41:40.765Z,100678.45
2018-06-01T10:42:43.350Z,100678.45
2018-06-01T10:43:46.342Z,100678.61
2018-06-01T10:44:48.878Z,100677.06
2018-06-01T10:45:51.481Z,100682.25
2018-06-01T10:46:54.437Z,100673.33
2018-06-01T10:47:57.094Z,100678.92
2018-06-01T10:48:59.965Z,100680.92
2018-06-01T10:50:02.731Z,100676.97
2018-06-01T10:51:05.291Z,100679.34
2018-06-01T10:52:07.845Z,100677.00
2018-06-01T10:53:10.818Z,100678.20
2018-06-01T10:54:13.349Z,100682.41
2018-06-01T10:55:15.982Z,100677.27
2018-06-01T10:56:18.537Z,100683.83
2018-06-01T10:57:21.040Z,100684.10
2018-06-01T10:58:23.548Z,100680.73
2018-06-01T10:59:26.083Z,100672.42
2018-06-01T11:00:28.589Z,100676.77
2018-06-01T11:01:31.108Z,100679.55
2018-06-01T11:02:33.609Z,100679.31
2018-06-01T11:03:36.120Z,100679.50
2018-06-01T11:04:38.619Z,100682.50
2018-06-01T11:05:41.116Z,100681.53
2018-06-01T11:06:43.617Z,100682.21
2018-06-01T11:07:46.113Z,100681.41
2018-06-01T11:08:48.613Z,100684.97
2018-06-01T11:09:51.144Z,100680.55
2018-06-01T11:10:53.630Z,100681.63
2018-06-01T11:11:56.155Z,100684.35
2018-06-01T11:12:58.671Z,100680.83
2018-06-01T11:14:01.200Z,100688.16
2018-06-01T11:15:03.700Z,100683.61
2018-06-01T11:16:06.186Z,100688.23
2018-06-01T11:17:08.672Z,100692.71
2018-06-01T11:18:11.183Z,100689.15
2018-06-01T11:19:13.686Z,100688.46
2018-06-01T11:20:16.165Z,100684.26
2018-06-01T11:21:18.735Z,100685.18
2018-06-01T11:22:21.213Z,100686.25
2018-06-01T11:23:23.705Z,100688.99
2018-06-01T11:24:26.238Z,100684.97
2018-06-01T11:25:28.726Z,100688.73
2018-06-01T11:26:31.373Z,100687.53
2018-06-01T11:27:33.890Z,100686.73
2018-06-01T11:28:36.394Z,100686.91
2018-06-01T11:29:38.879Z,100684.98
2018-06-01T11:30:41.391Z,100690.48
2018-06-01T11:31:43.882Z,100696.03
2018-06-01T11:32:46.445Z,100692.63
2018-06-01T11:33:48.938Z,100690.98
2018-06-01T11:34:51.433Z,100694.39
2018-06-01T11:35:53.960Z,100691.58
2018-06-01T11:36:56.613Z,100692.13
2018-06-01T11:37:59.134Z,100682.77
2018-06-01T11:39:01.646Z,100687.63
2018-06-01T11:40:04.153Z,100687.19
2018-06-01T11:41:06.667Z,100691.18
2018-06-01T11:42:09.175Z,100687.41
2018-06-01T11:43:11.693Z,100688.11
2018-06-01T11:44:14.180Z,100691.39
2018-06-01T11:45:16.703Z,100689.64
2018-06-01T11:46:19.205Z,100693.73
2018-06-01T11:47:21.723Z,100692.70
2018-06-01T11:48:24.259Z,100688.87
2018-06-01T11:49:26.769Z,100687.26
2018-06-01T11:50:29.267Z,100685.36
2018-06-01T11:51:31.769Z,100685.32
2018-06-01T11:52:34.265Z,100692.70
2018-06-01T11:53:36.762Z,100687.73
2018-06-01T11:54:39.262Z,100686.75